sensor_id;sensor_type;location;lat;lon;timestamp;pressure;altitude;pressure_sealevel;temperature;humidity
23733;BME280;12047;53.450;-2.286;2023-04-08T00:05:08;102084.25;;;14.47;86.61
23733;BME280;12047;53.450;-2.286;2023-04-08T00:10:11;102076.22;;;13.94;88.62
23733;BME280;12047;53.450;-2.286;2023-04-08T00:15:11;102083.47;;;14.24;88.38
23733;BME280;12047;53.450;-2.286;2023-04-08T00:20:45;102066.59;;;14.35;87.45
23733;BME280;12047;53.450;-2.286;2023-04-08T00:26:06;102077.78;;;14.29;87.46
23733;BME280;12047;53.450;-2.286;2023-04-08T00:31:09;102078.19;;;14.13;87.52
23733;BME280;12047;53.450;-2.286;2023-04-08T00:36:23;102079.88;;;14.14;87.93
23733;BME280;12047;53.450;-2.286;2023-04-08T00:41:35;102075.13;;;13.97;88.04
23733;BME280;12047;53.450;-2.286;2023-04-08T00:46:39;102081.84;;;13.80;88.28
23733;BME280;12047;53.450;-2.286;2023-04-08T00:51:40;102082.81;;;13.68;90.03
23733;BME280;12047;53.450;-2.286;2023-04-08T00:56:44;102083.97;;;13.98;88.87
23733;BME280;12047;53.450;-2.286;2023-04-08T01:02:44;102080.59;;;13.30;93.25
23733;BME280;12047;53.450;-2.286;2023-04-08T01:07:49;102079.81;;;12.72;95.82
23733;BME280;12047;53.450;-2.286;2023-04-08T01:12:58;102087.00;;;13.16;99.41
23733;BME280;12047;53.450;-2.286;2023-04-08T01:18:13;102082.38;;;13.52;97.18
23733;BME280;12047;53.450;-2.286;2023-04-08T01:23:25;102088.19;;;13.01;100.00
23733;BME280;12047;53.450;-2.286;2023-04-08T01:28:46;102100.63;;;13.12;100.00
23733;BME280;12047;53.450;-2.286;2023-04-08T01:34:15;102086.78;;;12.51;100.00
23733;BME280;12047;53.450;-2.286;2023-04-08T01:45:25;102095.63;;;12.51;100.00
23733;BME280;12047;53.450;-2.286;2023-04-08T01:50:33;102099.19;;;12.04;100.00
23733;BME280;12047;53.450;-2.286;2023-04-08T01:55:48;102097.63;;;13.39;100.00
23733;BME280;12047;53.450;-2.286;2023-04-08T02:00:57;102101.72;;;12.30;100.00
23733;BME280;12047;53.450;-2.286;2023-04-08T02:05:58;102100.88;;;12.40;100.00
23733;BME280;12047;53.450;-2.286;2023-04-08T02:10:59;102099.78;;;12.32;100.00
23733;BME280;12047;53.450;-2.286;2023-04-08T02:16:08;102108.84;;;12.29;100.00
23733;BME280;12047;53.450;-2.286;2023-04-08T02:21:14;102102.16;;;12.23;100.00
23733;BME280;12047;53.450;-2.286;2023-04-08T02:32:11;102104.13;;;12.33;100.00
23733;BME280;12047;53.450;-2.286;2023-04-08T02:37:16;102106.75;;;12.68;100.00
23733;BME280;12047;53.450;-2.286;2023-04-08T02:42:23;102114.69;;;12.10;100.00
23733;BME280;12047;53.450;-2.286;2023-04-08T02:47:36;102118.06;;;12.47;100.00
23733;BME280;12047;53.450;-2.286;2023-04-08T02:52:40;102125.56;;;12.18;100.00
23733;BME280;12047;53.450;-2.286;2023-04-08T02:57:52;102127.75;;;13.06;100.00
23733;BME280;12047;53.450;-2.286;2023-04-08T03:03:01;102131.69;;;13.35;100.00
23733;BME280;12047;53.450;-2.286;2023-04-08T03:08:06;102142.06;;;13.49;100.00
23733;BME280;12047;53.450;-2.286;2023-04-08T03:18:48;102149.63;;;12.52;100.00
23733;BME280;12047;53.450;-2.286;2023-04-08T03:23:54;102143.56;;;12.96;100.00
23733;BME280;12047;53.450;-2.286;2023-04-08T03:29:00;102146.66;;;13.25;100.00
23733;BME280;12047;53.450;-2.286;2023-04-08T03:34:00;102148.84;;;12.39;100.00
23733;BME280;12047;53.450;-2.286;2023-04-08T03:45:15;102153.44;;;11.27;100.00
23733;BME280;12047;53.450;-2.286;2023-04-08T03:50:18;102148.63;;;12.42;100.00
23733;BME280;12047;53.450;-2.286;2023-04-08T03:55:43;102142.00;;;12.12;100.00
23733;BME280;12047;53.450;-2.286;2023-04-08T04:00:51;102143.16;;;12.67;100.00
23733;BME280;12047;53.450;-2.286;2023-04-08T04:05:52;102135.47;;;12.86;100.00
23733;BME280;12047;53.450;-2.286;2023-04-08T04:10:55;102139.25;;;12.01;100.00
23733;BME280;12047;53.450;-2.286;2023-04-08T04:16:02;102151.91;;;12.45;100.00
23733;BME280;12047;53.450;-2.286;2023-04-08T04:21:05;102155.84;;;12.40;100.00
23733;BME280;12047;53.450;-2.286;2023-04-08T04:26:22;102150.63;;;12.62;100.00
23733;BME280;12047;53.450;-2.286;2023-04-08T04:38:00;102170.19;;;12.85;100.00
23733;BME280;12047;53.450;-2.286;2023-04-08T04:43:01;102156.34;;;12.34;100.00
23733;BME280;12047;53.450;-2.286;2023-04-08T04:48:27;102160.72;;;12.11;100.00
23733;BME280;12047;53.450;-2.286;2023-04-08T04:53:50;102162.13;;;11.29;100.00
23733;BME280;12047;53.450;-2.286;2023-04-08T05:04:42;102176.63;;;12.58;100.00
23733;BME280;12047;53.450;-2.286;2023-04-08T05:09:52;102171.09;;;11.65;100.00
23733;BME280;12047;53.450;-2.286;2023-04-08T05:15:01;102180.59;;;11.18;100.00
23733;BME280;12047;53.450;-2.286;2023-04-08T05:20:02;102186.22;;;11.51;100.00
23733;BME280;12047;53.450;-2.286;2023-04-08T05:25:11;102187.63;;;12.65;100.00
23733;BME280;12047;53.450;-2.286;2023-04-08T05:30:12;102194.31;;;12.47;100.00
23733;BME280;12047;53.450;-2.286;2023-04-08T05:35:12;102196.81;;;11.77;100.00
23733;BME280;12047;53.450;-2.286;2023-04-08T05:40:18;102209.84;;;11.92;100.00
23733;BME280;12047;53.450;-2.286;2023-04-08T05:45:21;102207.47;;;11.13;100.00
23733;BME280;12047;53.450;-2.286;2023-04-08T05:50:21;102202.19;;;12.01;100.00
23733;BME280;12047;53.450;-2.286;2023-04-08T05:55:25;102208.19;;;11.79;100.00
23733;BME280;12047;53.450;-2.286;2023-04-08T06:00:29;102215.84;;;11.20;100.00
23733;BME280;12047;53.450;-2.286;2023-04-08T06:05:33;102214.66;;;10.86;100.00
23733;BME280;12047;53.450;-2.286;2023-04-08T06:10:34;102223.25;;;11.40;100.00
23733;BME280;12047;53.450;-2.286;2023-04-08T06:21:52;102232.03;;;12.76;100.00
23733;BME280;12047;53.450;-2.286;2023-04-08T06:26:57;102236.97;;;11.34;100.00
23733;BME280;12047;53.450;-2.286;2023-04-08T06:37:47;102243.53;;;11.92;100.00
23733;BME280;12047;53.450;-2.286;2023-04-08T06:42:50;102246.34;;;12.14;100.00
23733;BME280;12047;53.450;-2.286;2023-04-08T06:47:51;102250.44;;;12.79;100.00
23733;BME280;12047;53.450;-2.286;2023-04-08T06:52:52;102252.44;;;12.99;100.00
23733;BME280;12047;53.450;-2.286;2023-04-08T06:57:52;102254.38;;;13.43;100.00
23733;BME280;12047;53.450;-2.286;2023-04-08T07:02:53;102267.44;;;14.24;100.00
23733;BME280;12047;53.450;-2.286;2023-04-08T07:07:56;102263.44;;;14.30;100.00
23733;BME280;12047;53.450;-2.286;2023-04-08T07:12:56;102263.03;;;15.51;100.00
23733;BME280;12047;53.450;-2.286;2023-04-08T07:17:57;102271.78;;;14.59;100.00
23733;BME280;12047;53.450;-2.286;2023-04-08T07:22:58;102266.13;;;15.26;100.00
23733;BME280;12047;53.450;-2.286;2023-04-08T07:27:59;102280.03;;;14.45;100.00
23733;BME280;12047;53.450;-2.286;2023-04-08T07:33:00;102274.19;;;15.56;100.00
23733;BME280;12047;53.450;-2.286;2023-04-08T07:38:01;102274.38;;;15.23;100.00
23733;BME280;12047;53.450;-2.286;2023-04-08T07:43:01;102280.91;;;15.30;100.00
23733;BME280;12047;53.450;-2.286;2023-04-08T07:48:02;102282.06;;;15.79;100.00
23733;BME280;12047;53.450;-2.286;2023-04-08T07:53:02;102291.06;;;15.87;98.63
23733;BME280;12047;53.450;-2.286;2023-04-08T07:58:03;102294.31;;;15.91;97.65
23733;BME280;12047;53.450;-2.286;2023-04-08T08:03:03;102291.44;;;16.13;97.67
23733;BME280;12047;53.450;-2.286;2023-04-08T08:08:04;102293.38;;;16.61;95.73
23733;BME280;12047;53.450;-2.286;2023-04-08T08:13:31;102293.69;;;16.58;94.94
23733;BME280;12047;53.450;-2.286;2023-04-08T08:18:34;102295.94;;;16.53;93.58
23733;BME280;12047;53.450;-2.286;2023-04-08T08:23:36;102297.78;;;17.39;91.61
23733;BME280;12047;53.450;-2.286;2023-04-08T08:28:37;102299.19;;;17.43;90.14
23733;BME280;12047;53.450;-2.286;2023-04-08T08:33:38;102309.84;;;18.09;89.17
23733;BME280;12047;53.450;-2.286;2023-04-08T08:38:39;102307.50;;;18.79;85.88
23733;BME280;12047;53.450;-2.286;2023-04-08T08:43:40;102308.25;;;18.71;82.32
23733;BME280;12047;53.450;-2.286;2023-04-08T08:48:41;102310.28;;;18.32;81.35
23733;BME280;12047;53.450;-2.286;2023-04-08T08:53:41;102310.28;;;17.67;81.43
23733;BME280;12047;53.450;-2.286;2023-04-08T08:58:45;102310.31;;;18.95;80.49
23733;BME280;12047;53.450;-2.286;2023-04-08T09:03:47;102306.66;;;19.91;76.82
23733;BME280;12047;53.450;-2.286;2023-04-08T09:09:06;102298.75;;;18.77;78.48
23733;BME280;12047;53.450;-2.286;2023-04-08T09:14:24;102301.16;;;19.67;77.26
23733;BME280;12047;53.450;-2.286;2023-04-08T09:19:25;102303.56;;;18.73;73.90
23733;BME280;12047;53.450;-2.286;2023-04-08T09:24:28;102302.47;;;18.66;75.37
23733;BME280;12047;53.450;-2.286;2023-04-08T09:29:28;102305.19;;;19.01;73.19
23733;BME280;12047;53.450;-2.286;2023-04-08T09:34:29;102300.59;;;20.23;72.17
23733;BME280;12047;53.450;-2.286;2023-04-08T09:39:33;102305.16;;;21.30;70.66
23733;BME280;12047;53.450;-2.286;2023-04-08T09:44:34;102301.97;;;21.43;68.48
23733;BME280;12047;53.450;-2.286;2023-04-08T09:49:42;102293.28;;;20.58;66.48
23733;BME280;12047;53.450;-2.286;2023-04-08T09:55:09;102302.53;;;20.47;64.77
23733;BME280;12047;53.450;-2.286;2023-04-08T10:00:16;102295.00;;;21.72;63.21
23733;BME280;12047;53.450;-2.286;2023-04-08T10:05:17;102301.19;;;20.09;63.99
23733;BME280;12047;53.450;-2.286;2023-04-08T10:10:21;102287.50;;;21.91;62.76
23733;BME280;12047;53.450;-2.286;2023-04-08T10:15:35;102300.66;;;22.33;60.15
23733;BME280;12047;53.450;-2.286;2023-04-08T10:20:41;102292.19;;;22.05;59.09
23733;BME280;12047;53.450;-2.286;2023-04-08T10:25:44;102295.34;;;21.61;60.62
23733;BME280;12047;53.450;-2.286;2023-04-08T10:30:52;102285.94;;;22.04;60.05
23733;BME280;12047;53.450;-2.286;2023-04-08T10:35:55;102285.91;;;21.65;58.50
23733;BME280;12047;53.450;-2.286;2023-04-08T10:41:03;102280.22;;;20.21;57.28
23733;BME280;12047;53.450;-2.286;2023-04-08T10:46:04;102281.94;;;22.31;57.08
23733;BME280;12047;53.450;-2.286;2023-04-08T10:51:05;102277.19;;;21.39;51.78
23733;BME280;12047;53.450;-2.286;2023-04-08T10:56:18;102263.47;;;22.43;51.75
23733;BME280;12047;53.450;-2.286;2023-04-08T11:01:37;102278.19;;;21.38;48.80
23733;BME280;12047;53.450;-2.286;2023-04-08T11:06:42;102271.22;;;21.68;48.76
23733;BME280;12047;53.450;-2.286;2023-04-08T11:11:44;102258.28;;;22.02;49.47
23733;BME280;12047;53.450;-2.286;2023-04-08T11:16:45;102265.88;;;22.38;49.06
23733;BME280;12047;53.450;-2.286;2023-04-08T11:21:46;102253.50;;;21.73;47.26
23733;BME280;12047;53.450;-2.286;2023-04-08T11:26:47;102263.69;;;21.47;47.03
23733;BME280;12047;53.450;-2.286;2023-04-08T11:31:48;102257.09;;;22.05;46.24
23733;BME280;12047;53.450;-2.286;2023-04-08T11:36:51;102256.09;;;22.37;45.27
23733;BME280;12047;53.450;-2.286;2023-04-08T11:41:52;102264.72;;;21.46;46.13
23733;BME280;12047;53.450;-2.286;2023-04-08T11:46:53;102257.97;;;21.50;45.88
23733;BME280;12047;53.450;-2.286;2023-04-08T11:51:56;102248.53;;;22.01;45.79
23733;BME280;12047;53.450;-2.286;2023-04-08T11:57:06;102252.59;;;20.93;45.28
23733;BME280;12047;53.450;-2.286;2023-04-08T12:02:10;102253.78;;;21.87;46.08
23733;BME280;12047;53.450;-2.286;2023-04-08T12:07:10;102257.78;;;21.44;47.41
23733;BME280;12047;53.450;-2.286;2023-04-08T12:12:23;102258.41;;;22.48;49.28
23733;BME280;12047;53.450;-2.286;2023-04-08T12:17:27;102256.44;;;22.03;48.68
23733;BME280;12047;53.450;-2.286;2023-04-08T12:22:28;102259.34;;;22.01;47.60
23733;BME280;12047;53.450;-2.286;2023-04-08T12:27:31;102257.88;;;21.75;47.35
23733;BME280;12047;53.450;-2.286;2023-04-08T12:32:35;102246.50;;;21.95;46.79
23733;BME280;12047;53.450;-2.286;2023-04-08T12:37:35;102236.44;;;21.01;45.31
23733;BME280;12047;53.450;-2.286;2023-04-08T12:42:36;102243.50;;;21.02;44.54
23733;BME280;12047;53.450;-2.286;2023-04-08T12:47:36;102240.56;;;22.08;45.56
23733;BME280;12047;53.450;-2.286;2023-04-08T12:52:37;102239.06;;;21.50;45.02
23733;BME280;12047;53.450;-2.286;2023-04-08T12:57:38;102229.84;;;21.84;45.60
23733;BME280;12047;53.450;-2.286;2023-04-08T13:02:38;102242.69;;;22.21;47.82
23733;BME280;12047;53.450;-2.286;2023-04-08T13:07:41;102236.50;;;22.35;46.36
23733;BME280;12047;53.450;-2.286;2023-04-08T13:12:44;102223.81;;;22.44;44.61
23733;BME280;12047;53.450;-2.286;2023-04-08T13:17:45;102216.91;;;22.87;45.86
23733;BME280;12047;53.450;-2.286;2023-04-08T13:22:45;102192.16;;;21.98;46.65
23733;BME280;12047;53.450;-2.286;2023-04-08T13:27:46;102219.63;;;22.10;46.65
23733;BME280;12047;53.450;-2.286;2023-04-08T13:32:46;102213.97;;;22.51;46.01
23733;BME280;12047;53.450;-2.286;2023-04-08T13:37:57;102194.25;;;22.65;45.24
23733;BME280;12047;53.450;-2.286;2023-04-08T13:42:57;102206.47;;;22.84;46.21
23733;BME280;12047;53.450;-2.286;2023-04-08T13:47:58;102210.31;;;22.89;46.58
23733;BME280;12047;53.450;-2.286;2023-04-08T13:52:59;102201.41;;;22.58;44.38
23733;BME280;12047;53.450;-2.286;2023-04-08T13:57:59;102199.38;;;22.37;44.42
23733;BME280;12047;53.450;-2.286;2023-04-08T14:03:00;102198.28;;;22.23;44.64
23733;BME280;12047;53.450;-2.286;2023-04-08T14:08:00;102191.22;;;22.45;43.90
23733;BME280;12047;53.450;-2.286;2023-04-08T14:13:21;102182.72;;;22.94;45.07
23733;BME280;12047;53.450;-2.286;2023-04-08T14:18:24;102190.25;;;22.38;43.54
23733;BME280;12047;53.450;-2.286;2023-04-08T14:23:25;102185.06;;;22.28;45.30
23733;BME280;12047;53.450;-2.286;2023-04-08T14:28:27;102177.44;;;22.55;43.80
23733;BME280;12047;53.450;-2.286;2023-04-08T14:33:28;102181.69;;;20.85;41.18
23733;BME280;12047;53.450;-2.286;2023-04-08T14:38:34;102182.03;;;21.69;40.47
23733;BME280;12047;53.450;-2.286;2023-04-08T14:43:38;102176.97;;;20.95;40.40
23733;BME280;12047;53.450;-2.286;2023-04-08T14:48:40;102176.13;;;21.27;40.94
23733;BME280;12047;53.450;-2.286;2023-04-08T14:53:44;102174.69;;;21.47;42.14
23733;BME280;12047;53.450;-2.286;2023-04-08T14:58:45;102164.06;;;21.85;42.15
23733;BME280;12047;53.450;-2.286;2023-04-08T15:03:45;102165.69;;;22.02;43.18
23733;BME280;12047;53.450;-2.286;2023-04-08T15:08:46;102156.38;;;22.04;45.10
23733;BME280;12047;53.450;-2.286;2023-04-08T15:13:47;102160.72;;;22.36;43.48
23733;BME280;12047;53.450;-2.286;2023-04-08T15:18:47;102155.78;;;22.63;45.58
23733;BME280;12047;53.450;-2.286;2023-04-08T15:23:47;102151.72;;;20.96;43.11
23733;BME280;12047;53.450;-2.286;2023-04-08T15:28:49;102151.59;;;21.53;44.18
23733;BME280;12047;53.450;-2.286;2023-04-08T15:33:51;102147.53;;;20.69;45.40
23733;BME280;12047;53.450;-2.286;2023-04-08T15:38:52;102157.91;;;21.13;45.34
23733;BME280;12047;53.450;-2.286;2023-04-08T15:43:52;102151.13;;;21.41;44.46
23733;BME280;12047;53.450;-2.286;2023-04-08T15:48:53;102140.97;;;22.36;45.66
23733;BME280;12047;53.450;-2.286;2023-04-08T15:53:54;102140.53;;;21.70;45.10
23733;BME280;12047;53.450;-2.286;2023-04-08T15:58:57;102142.31;;;22.17;44.91
23733;BME280;12047;53.450;-2.286;2023-04-08T16:03:58;102139.66;;;22.09;42.07
23733;BME280;12047;53.450;-2.286;2023-04-08T16:08:59;102137.06;;;21.54;43.81
23733;BME280;12047;53.450;-2.286;2023-04-08T16:14:00;102129.03;;;21.77;44.02
23733;BME280;12047;53.450;-2.286;2023-04-08T16:19:00;102137.81;;;21.39;44.21
23733;BME280;12047;53.450;-2.286;2023-04-08T16:24:01;102130.56;;;21.32;43.33
23733;BME280;12047;53.450;-2.286;2023-04-08T16:29:02;102135.19;;;21.54;43.19
23733;BME280;12047;53.450;-2.286;2023-04-08T16:34:12;102130.50;;;21.01;43.90
23733;BME280;12047;53.450;-2.286;2023-04-08T16:39:13;102133.94;;;21.34;43.43
23733;BME280;12047;53.450;-2.286;2023-04-08T16:44:14;102129.94;;;21.61;46.27
23733;BME280;12047;53.450;-2.286;2023-04-08T16:49:15;102130.06;;;21.36;45.07
23733;BME280;12047;53.450;-2.286;2023-04-08T16:54:15;102128.06;;;21.30;45.22
23733;BME280;12047;53.450;-2.286;2023-04-08T16:59:16;102127.06;;;21.15;46.15
23733;BME280;12047;53.450;-2.286;2023-04-08T17:04:16;102116.41;;;21.77;45.46
23733;BME280;12047;53.450;-2.286;2023-04-08T17:09:17;102111.91;;;21.14;47.06
23733;BME280;12047;53.450;-2.286;2023-04-08T17:14:21;102119.28;;;21.36;47.04
23733;BME280;12047;53.450;-2.286;2023-04-08T17:19:24;102119.56;;;21.50;47.17
23733;BME280;12047;53.450;-2.286;2023-04-08T17:24:24;102126.84;;;21.41;48.63
23733;BME280;12047;53.450;-2.286;2023-04-08T17:29:25;102126.47;;;20.89;49.32
23733;BME280;12047;53.450;-2.286;2023-04-08T17:34:26;102124.28;;;20.84;49.48
23733;BME280;12047;53.450;-2.286;2023-04-08T17:39:26;102117.75;;;20.62;49.66
23733;BME280;12047;53.450;-2.286;2023-04-08T17:44:30;102119.84;;;21.08;49.19
23733;BME280;12047;53.450;-2.286;2023-04-08T17:49:30;102105.97;;;20.71;50.50
23733;BME280;12047;53.450;-2.286;2023-04-08T17:54:31;102111.81;;;20.83;50.48
23733;BME280;12047;53.450;-2.286;2023-04-08T17:59:34;102117.88;;;20.36;50.74
23733;BME280;12047;53.450;-2.286;2023-04-08T18:04:37;102117.25;;;20.51;50.79
23733;BME280;12047;53.450;-2.286;2023-04-08T18:26:58;102123.28;;;19.54;52.09
23733;BME280;12047;53.450;-2.286;2023-04-08T18:44:56;102134.91;;;19.62;52.75
23733;BME280;12047;53.450;-2.286;2023-04-08T18:50:12;102125.16;;;19.61;52.76
23733;BME280;12047;53.450;-2.286;2023-04-08T19:07:36;102145.47;;;18.96;54.48
23733;BME280;12047;53.450;-2.286;2023-04-08T19:13:21;102148.34;;;19.62;54.30
23733;BME280;12047;53.450;-2.286;2023-04-08T19:18:35;102146.50;;;19.29;54.96
23733;BME280;12047;53.450;-2.286;2023-04-08T19:29:36;102153.50;;;19.22;55.51
23733;BME280;12047;53.450;-2.286;2023-04-08T19:34:43;102155.16;;;19.15;56.48
23733;BME280;12047;53.450;-2.286;2023-04-08T19:39:44;102145.66;;;18.59;56.81
23733;BME280;12047;53.450;-2.286;2023-04-08T19:44:47;102147.38;;;19.03;57.19
23733;BME280;12047;53.450;-2.286;2023-04-08T19:49:48;102139.69;;;18.47;58.15
23733;BME280;12047;53.450;-2.286;2023-04-08T19:54:52;102159.09;;;18.41;59.65
23733;BME280;12047;53.450;-2.286;2023-04-08T19:59:58;102153.75;;;18.23;60.01
23733;BME280;12047;53.450;-2.286;2023-04-08T20:05:01;102156.72;;;18.38;60.19
23733;BME280;12047;53.450;-2.286;2023-04-08T20:10:05;102154.13;;;18.46;60.38
23733;BME280;12047;53.450;-2.286;2023-04-08T20:26:28;102167.56;;;18.28;61.63
23733;BME280;12047;53.450;-2.286;2023-04-08T20:31:34;102165.38;;;18.14;61.89
23733;BME280;12047;53.450;-2.286;2023-04-08T20:37:01;102166.38;;;18.49;62.64
23733;BME280;12047;53.450;-2.286;2023-04-08T20:42:43;102177.31;;;17.47;64.10
23733;BME280;12047;53.450;-2.286;2023-04-08T20:47:46;102166.03;;;17.81;63.87
23733;BME280;12047;53.450;-2.286;2023-04-08T21:05:19;102166.69;;;17.55;65.42
23733;BME280;12047;53.450;-2.286;2023-04-08T21:41:27;102165.78;;;16.52;73.15
23733;BME280;12047;53.450;-2.286;2023-04-08T21:46:35;102158.19;;;16.18;75.16
23733;BME280;12047;53.450;-2.286;2023-04-08T21:57:38;102163.19;;;15.92;78.92
23733;BME280;12047;53.450;-2.286;2023-04-08T22:02:47;102166.22;;;15.69;82.02
23733;BME280;12047;53.450;-2.286;2023-04-08T22:07:47;102168.81;;;15.80;82.66
23733;BME280;12047;53.450;-2.286;2023-04-08T22:12:51;102164.88;;;15.93;85.39
23733;BME280;12047;53.450;-2.286;2023-04-08T22:23:54;102163.34;;;15.91;87.66
23733;BME280;12047;53.450;-2.286;2023-04-08T22:29:14;102163.13;;;15.63;89.51
23733;BME280;12047;53.450;-2.286;2023-04-08T22:34:14;102164.53;;;15.37;89.30
23733;BME280;12047;53.450;-2.286;2023-04-08T22:39:21;102164.97;;;15.42;90.73
23733;BME280;12047;53.450;-2.286;2023-04-08T22:57:02;102159.06;;;15.39;92.67
